sensor_id;sensor_type;location;lat;lon;timestamp;P1;durP1;ratioP1;P2;durP2;ratioP2
5774;SDS011;2913;51.120;6.772;2022-08-05T00:03:37;9.38;;;3.90;;
5774;SDS011;2913;51.120;6.772;2022-08-05T00:06:03;14.27;;;4.47;;
5774;SDS011;2913;51.120;6.772;2022-08-05T00:08:29;14.45;;;4.45;;
5774;SDS011;2913;51.120;6.772;2022-08-05T00:10:55;14.48;;;4.13;;
5774;SDS011;2913;51.120;6.772;2022-08-05T00:13:28;13.32;;;4.43;;
5774;SDS011;2913;51.120;6.772;2022-08-05T00:15:57;9.32;;;4.55;;
5774;SDS011;2913;51.120;6.772;2022-08-05T00:18:24;16.83;;;4.72;;
5774;SDS011;2913;51.120;6.772;2022-08-05T00:20:50;14.00;;;4.78;;
5774;SDS011;2913;51.120;6.772;2022-08-05T00:23:16;15.73;;;5.07;;
5774;SDS011;2913;51.120;6.772;2022-08-05T00:25:42;12.10;;;5.00;;
5774;SDS011;2913;51.120;6.772;2022-08-05T00:28:10;16.42;;;6.40;;
5774;SDS011;2913;51.120;6.772;2022-08-05T00:30:36;19.63;;;5.95;;
5774;SDS011;2913;51.120;6.772;2022-08-05T00:33:01;19.83;;;5.15;;
5774;SDS011;2913;51.120;6.772;2022-08-05T00:35:27;12.30;;;4.65;;
5774;SDS011;2913;51.120;6.772;2022-08-05T00:37:53;15.45;;;4.43;;
5774;SDS011;2913;51.120;6.772;2022-08-05T00:40:23;10.40;;;4.68;;
5774;SDS011;2913;51.120;6.772;2022-08-05T00:42:52;14.25;;;4.40;;
5774;SDS011;2913;51.120;6.772;2022-08-05T00:45:20;12.13;;;4.45;;
5774;SDS011;2913;51.120;6.772;2022-08-05T00:47:46;12.68;;;4.25;;
5774;SDS011;2913;51.120;6.772;2022-08-05T00:50:12;13.60;;;4.72;;
5774;SDS011;2913;51.120;6.772;2022-08-05T00:52:39;8.23;;;4.32;;
5774;SDS011;2913;51.120;6.772;2022-08-05T00:55:07;8.25;;;4.68;;
5774;SDS011;2913;51.120;6.772;2022-08-05T00:57:36;15.02;;;4.50;;
5774;SDS011;2913;51.120;6.772;2022-08-05T01:00:02;20.52;;;5.15;;
5774;SDS011;2913;51.120;6.772;2022-08-05T01:02:29;18.73;;;5.15;;
5774;SDS011;2913;51.120;6.772;2022-08-05T01:04:54;21.65;;;6.13;;
5774;SDS011;2913;51.120;6.772;2022-08-05T01:07:20;14.75;;;5.78;;
5774;SDS011;2913;51.120;6.772;2022-08-05T01:09:46;22.88;;;5.05;;
5774;SDS011;2913;51.120;6.772;2022-08-05T01:12:13;17.17;;;6.18;;
5774;SDS011;2913;51.120;6.772;2022-08-05T01:14:46;16.58;;;5.40;;
5774;SDS011;2913;51.120;6.772;2022-08-05T01:31:01;20.73;;;5.90;;
5774;SDS011;2913;51.120;6.772;2022-08-05T01:33:32;18.88;;;6.47;;
5774;SDS011;2913;51.120;6.772;2022-08-05T01:36:02;13.75;;;6.72;;
5774;SDS011;2913;51.120;6.772;2022-08-05T01:38:33;22.23;;;7.75;;
5774;SDS011;2913;51.120;6.772;2022-08-05T01:41:01;17.00;;;7.50;;
5774;SDS011;2913;51.120;6.772;2022-08-05T01:43:29;17.45;;;7.07;;
5774;SDS011;2913;51.120;6.772;2022-08-05T01:45:57;17.48;;;7.90;;
5774;SDS011;2913;51.120;6.772;2022-08-05T01:48:24;23.33;;;8.07;;
5774;SDS011;2913;51.120;6.772;2022-08-05T01:50:56;21.85;;;7.95;;
5774;SDS011;2913;51.120;6.772;2022-08-05T01:53:22;22.65;;;8.38;;
5774;SDS011;2913;51.120;6.772;2022-08-05T01:55:49;24.75;;;8.75;;
5774;SDS011;2913;51.120;6.772;2022-08-05T01:58:21;23.98;;;9.10;;
5774;SDS011;2913;51.120;6.772;2022-08-05T02:00:53;22.83;;;9.13;;
5774;SDS011;2913;51.120;6.772;2022-08-05T02:03:28;19.27;;;8.23;;
5774;SDS011;2913;51.120;6.772;2022-08-05T02:05:55;23.05;;;9.00;;
5774;SDS011;2913;51.120;6.772;2022-08-05T02:08:21;27.63;;;8.77;;
5774;SDS011;2913;51.120;6.772;2022-08-05T02:10:48;20.40;;;8.60;;
5774;SDS011;2913;51.120;6.772;2022-08-05T02:13:18;14.55;;;7.32;;
5774;SDS011;2913;51.120;6.772;2022-08-05T02:15:59;17.73;;;7.93;;
5774;SDS011;2913;51.120;6.772;2022-08-05T02:18:30;24.77;;;8.73;;
5774;SDS011;2913;51.120;6.772;2022-08-05T02:23:44;20.30;;;8.93;;
5774;SDS011;2913;51.120;6.772;2022-08-05T02:26:12;15.85;;;8.38;;
5774;SDS011;2913;51.120;6.772;2022-08-05T02:28:57;24.77;;;9.23;;
5774;SDS011;2913;51.120;6.772;2022-08-05T02:31:25;24.45;;;9.82;;
5774;SDS011;2913;51.120;6.772;2022-08-05T02:33:57;28.83;;;10.95;;
5774;SDS011;2913;51.120;6.772;2022-08-05T02:36:30;14.18;;;8.90;;
5774;SDS011;2913;51.120;6.772;2022-08-05T02:38:58;21.80;;;9.25;;
5774;SDS011;2913;51.120;6.772;2022-08-05T02:41:30;17.23;;;8.50;;
5774;SDS011;2913;51.120;6.772;2022-08-05T02:43:59;21.60;;;9.93;;
5774;SDS011;2913;51.120;6.772;2022-08-05T02:46:26;27.20;;;9.77;;
5774;SDS011;2913;51.120;6.772;2022-08-05T02:48:57;20.38;;;8.68;;
5774;SDS011;2913;51.120;6.772;2022-08-05T02:51:25;22.50;;;10.52;;
5774;SDS011;2913;51.120;6.772;2022-08-05T02:53:54;29.08;;;10.45;;
5774;SDS011;2913;51.120;6.772;2022-08-05T02:56:21;24.48;;;10.50;;
5774;SDS011;2913;51.120;6.772;2022-08-05T02:58:47;27.58;;;11.10;;
5774;SDS011;2913;51.120;6.772;2022-08-05T03:01:19;26.17;;;12.27;;
5774;SDS011;2913;51.120;6.772;2022-08-05T03:03:51;31.33;;;12.05;;
5774;SDS011;2913;51.120;6.772;2022-08-05T03:06:21;37.50;;;17.23;;
5774;SDS011;2913;51.120;6.772;2022-08-05T03:08:50;39.92;;;19.75;;
5774;SDS011;2913;51.120;6.772;2022-08-05T03:13:42;53.90;;;24.30;;
5774;SDS011;2913;51.120;6.772;2022-08-05T03:16:08;59.15;;;26.65;;
5774;SDS011;2913;51.120;6.772;2022-08-05T03:18:33;72.50;;;30.05;;
5774;SDS011;2913;51.120;6.772;2022-08-05T03:20:59;59.65;;;29.05;;
5774;SDS011;2913;51.120;6.772;2022-08-05T03:23:25;62.70;;;29.33;;
5774;SDS011;2913;51.120;6.772;2022-08-05T03:25:51;66.65;;;29.92;;
5774;SDS011;2913;51.120;6.772;2022-08-05T03:28:17;64.43;;;29.98;;
5774;SDS011;2913;51.120;6.772;2022-08-05T03:30:43;66.93;;;29.30;;
5774;SDS011;2913;51.120;6.772;2022-08-05T03:33:10;58.70;;;29.42;;
5774;SDS011;2913;51.120;6.772;2022-08-05T03:35:35;75.72;;;30.42;;
5774;SDS011;2913;51.120;6.772;2022-08-05T03:38:02;65.80;;;31.90;;
5774;SDS011;2913;51.120;6.772;2022-08-05T03:40:28;61.25;;;29.00;;
5774;SDS011;2913;51.120;6.772;2022-08-05T03:42:53;58.72;;;30.48;;
5774;SDS011;2913;51.120;6.772;2022-08-05T03:45:24;67.63;;;30.48;;
5774;SDS011;2913;51.120;6.772;2022-08-05T03:47:50;66.90;;;30.33;;
5774;SDS011;2913;51.120;6.772;2022-08-05T03:50:18;57.88;;;29.35;;
5774;SDS011;2913;51.120;6.772;2022-08-05T03:52:51;58.17;;;28.73;;
5774;SDS011;2913;51.120;6.772;2022-08-05T03:55:31;63.58;;;29.25;;
5774;SDS011;2913;51.120;6.772;2022-08-05T03:58:01;58.65;;;29.30;;
5774;SDS011;2913;51.120;6.772;2022-08-05T04:00:29;62.72;;;29.45;;
5774;SDS011;2913;51.120;6.772;2022-08-05T04:02:58;60.80;;;28.00;;
5774;SDS011;2913;51.120;6.772;2022-08-05T04:05:31;59.88;;;27.65;;
5774;SDS011;2913;51.120;6.772;2022-08-05T04:08:04;59.08;;;26.65;;
5774;SDS011;2913;51.120;6.772;2022-08-05T04:10:32;47.92;;;24.63;;
5774;SDS011;2913;51.120;6.772;2022-08-05T04:12:59;55.63;;;25.92;;
5774;SDS011;2913;51.120;6.772;2022-08-05T04:15:25;55.15;;;24.05;;
5774;SDS011;2913;51.120;6.772;2022-08-05T04:17:52;52.35;;;24.77;;
5774;SDS011;2913;51.120;6.772;2022-08-05T04:20:19;56.90;;;25.33;;
5774;SDS011;2913;51.120;6.772;2022-08-05T04:22:46;48.55;;;24.50;;
5774;SDS011;2913;51.120;6.772;2022-08-05T04:25:12;55.10;;;26.35;;
5774;SDS011;2913;51.120;6.772;2022-08-05T04:27:38;61.83;;;26.50;;
5774;SDS011;2913;51.120;6.772;2022-08-05T04:30:04;57.88;;;26.98;;
5774;SDS011;2913;51.120;6.772;2022-08-05T04:32:36;50.03;;;25.02;;
5774;SDS011;2913;51.120;6.772;2022-08-05T04:35:04;59.40;;;25.20;;
5774;SDS011;2913;51.120;6.772;2022-08-05T04:37:30;50.83;;;23.80;;
5774;SDS011;2913;51.120;6.772;2022-08-05T04:40:00;47.13;;;24.35;;
5774;SDS011;2913;51.120;6.772;2022-08-05T04:42:26;57.55;;;26.23;;
5774;SDS011;2913;51.120;6.772;2022-08-05T04:44:51;57.38;;;26.35;;
5774;SDS011;2913;51.120;6.772;2022-08-05T04:47:19;48.35;;;25.23;;
5774;SDS011;2913;51.120;6.772;2022-08-05T04:49:45;52.45;;;24.70;;
5774;SDS011;2913;51.120;6.772;2022-08-05T04:52:13;58.15;;;26.70;;
5774;SDS011;2913;51.120;6.772;2022-08-05T04:54:40;55.88;;;26.05;;
5774;SDS011;2913;51.120;6.772;2022-08-05T04:57:06;53.80;;;25.52;;
5774;SDS011;2913;51.120;6.772;2022-08-05T04:59:37;56.03;;;25.38;;
5774;SDS011;2913;51.120;6.772;2022-08-05T05:02:02;53.80;;;25.98;;
5774;SDS011;2913;51.120;6.772;2022-08-05T05:04:30;49.42;;;24.98;;
5774;SDS011;2913;51.120;6.772;2022-08-05T05:06:56;48.63;;;24.83;;
5774;SDS011;2913;51.120;6.772;2022-08-05T05:09:22;57.17;;;25.63;;
5774;SDS011;2913;51.120;6.772;2022-08-05T05:11:47;50.90;;;25.27;;
5774;SDS011;2913;51.120;6.772;2022-08-05T05:14:13;53.63;;;25.33;;
5774;SDS011;2913;51.120;6.772;2022-08-05T05:16:38;59.88;;;27.00;;
5774;SDS011;2913;51.120;6.772;2022-08-05T05:19:06;55.38;;;26.42;;
5774;SDS011;2913;51.120;6.772;2022-08-05T05:21:34;52.92;;;26.60;;
5774;SDS011;2913;51.120;6.772;2022-08-05T05:24:00;52.65;;;26.40;;
5774;SDS011;2913;51.120;6.772;2022-08-05T05:26:25;50.40;;;24.88;;
5774;SDS011;2913;51.120;6.772;2022-08-05T05:28:51;47.97;;;24.30;;
5774;SDS011;2913;51.120;6.772;2022-08-05T05:31:17;50.35;;;23.38;;
5774;SDS011;2913;51.120;6.772;2022-08-05T05:33:42;46.53;;;24.30;;
5774;SDS011;2913;51.120;6.772;2022-08-05T05:36:08;46.30;;;24.27;;
5774;SDS011;2913;51.120;6.772;2022-08-05T05:38:34;56.42;;;25.13;;
5774;SDS011;2913;51.120;6.772;2022-08-05T05:41:01;58.55;;;26.90;;
5774;SDS011;2913;51.120;6.772;2022-08-05T05:43:27;60.33;;;28.90;;
5774;SDS011;2913;51.120;6.772;2022-08-05T05:45:53;60.75;;;29.05;;
5774;SDS011;2913;51.120;6.772;2022-08-05T05:48:18;63.15;;;29.73;;
5774;SDS011;2913;51.120;6.772;2022-08-05T05:50:46;63.55;;;29.80;;
5774;SDS011;2913;51.120;6.772;2022-08-05T05:53:12;81.57;;;32.63;;
5774;SDS011;2913;51.120;6.772;2022-08-05T05:55:37;72.50;;;30.27;;
5774;SDS011;2913;51.120;6.772;2022-08-05T05:58:03;65.57;;;29.45;;
5774;SDS011;2913;51.120;6.772;2022-08-05T06:00:31;64.47;;;30.55;;
5774;SDS011;2913;51.120;6.772;2022-08-05T06:02:56;73.22;;;31.52;;
5774;SDS011;2913;51.120;6.772;2022-08-05T06:05:22;88.10;;;35.05;;
5774;SDS011;2913;51.120;6.772;2022-08-05T06:07:47;77.72;;;34.17;;
5774;SDS011;2913;51.120;6.772;2022-08-05T06:10:14;86.28;;;35.38;;
5774;SDS011;2913;51.120;6.772;2022-08-05T06:12:39;82.22;;;36.35;;
5774;SDS011;2913;51.120;6.772;2022-08-05T06:15:05;74.00;;;35.25;;
5774;SDS011;2913;51.120;6.772;2022-08-05T06:17:32;95.38;;;37.80;;
5774;SDS011;2913;51.120;6.772;2022-08-05T06:19:58;81.65;;;37.35;;
5774;SDS011;2913;51.120;6.772;2022-08-05T06:22:29;84.95;;;35.70;;
5774;SDS011;2913;51.120;6.772;2022-08-05T06:24:56;81.68;;;34.83;;
5774;SDS011;2913;51.120;6.772;2022-08-05T06:27:24;79.57;;;33.72;;
5774;SDS011;2913;51.120;6.772;2022-08-05T06:29:50;77.55;;;31.77;;
5774;SDS011;2913;51.120;6.772;2022-08-05T06:32:20;82.45;;;36.78;;
5774;SDS011;2913;51.120;6.772;2022-08-05T06:34:46;88.45;;;35.47;;
5774;SDS011;2913;51.120;6.772;2022-08-05T06:37:11;90.40;;;36.00;;
5774;SDS011;2913;51.120;6.772;2022-08-05T06:39:40;95.22;;;36.80;;
5774;SDS011;2913;51.120;6.772;2022-08-05T06:42:06;97.68;;;38.10;;
5774;SDS011;2913;51.120;6.772;2022-08-05T06:44:34;97.70;;;39.50;;
5774;SDS011;2913;51.120;6.772;2022-08-05T06:47:02;140.25;;;45.10;;
5774;SDS011;2913;51.120;6.772;2022-08-05T06:49:30;148.25;;;46.63;;
5774;SDS011;2913;51.120;6.772;2022-08-05T06:51:56;130.75;;;45.78;;
5774;SDS011;2913;51.120;6.772;2022-08-05T06:54:22;124.90;;;44.28;;
5774;SDS011;2913;51.120;6.772;2022-08-05T06:56:47;126.05;;;44.45;;
5774;SDS011;2913;51.120;6.772;2022-08-05T06:59:13;143.80;;;52.25;;
5774;SDS011;2913;51.120;6.772;2022-08-05T07:01:39;145.15;;;54.60;;
5774;SDS011;2913;51.120;6.772;2022-08-05T07:04:04;132.07;;;51.58;;
5774;SDS011;2913;51.120;6.772;2022-08-05T07:06:30;140.85;;;47.85;;
5774;SDS011;2913;51.120;6.772;2022-08-05T07:08:59;134.63;;;51.47;;
5774;SDS011;2913;51.120;6.772;2022-08-05T07:11:25;130.07;;;46.80;;
5774;SDS011;2913;51.120;6.772;2022-08-05T07:13:55;120.50;;;50.15;;
5774;SDS011;2913;51.120;6.772;2022-08-05T07:16:39;131.70;;;49.60;;
5774;SDS011;2913;51.120;6.772;2022-08-05T07:19:17;149.10;;;51.05;;
5774;SDS011;2913;51.120;6.772;2022-08-05T07:21:47;149.75;;;55.72;;
5774;SDS011;2913;51.120;6.772;2022-08-05T07:24:16;138.93;;;52.70;;
5774;SDS011;2913;51.120;6.772;2022-08-05T07:26:42;160.60;;;60.70;;
5774;SDS011;2913;51.120;6.772;2022-08-05T07:29:11;159.52;;;59.75;;
5774;SDS011;2913;51.120;6.772;2022-08-05T07:31:39;156.23;;;58.15;;
5774;SDS011;2913;51.120;6.772;2022-08-05T07:34:06;163.13;;;64.40;;
5774;SDS011;2913;51.120;6.772;2022-08-05T07:36:34;160.98;;;60.25;;
5774;SDS011;2913;51.120;6.772;2022-08-05T07:39:05;161.48;;;60.40;;
5774;SDS011;2913;51.120;6.772;2022-08-05T07:41:32;155.00;;;61.03;;
5774;SDS011;2913;51.120;6.772;2022-08-05T07:43:59;154.90;;;58.22;;
5774;SDS011;2913;51.120;6.772;2022-08-05T07:46:28;138.55;;;53.70;;
5774;SDS011;2913;51.120;6.772;2022-08-05T07:48:55;122.15;;;48.25;;
5774;SDS011;2913;51.120;6.772;2022-08-05T07:51:22;107.43;;;43.17;;
5774;SDS011;2913;51.120;6.772;2022-08-05T07:53:48;93.63;;;38.67;;
5774;SDS011;2913;51.120;6.772;2022-08-05T07:56:13;92.57;;;30.65;;
5774;SDS011;2913;51.120;6.772;2022-08-05T07:58:39;68.82;;;28.70;;
5774;SDS011;2913;51.120;6.772;2022-08-05T08:01:05;49.53;;;21.95;;
5774;SDS011;2913;51.120;6.772;2022-08-05T08:03:30;47.13;;;22.38;;
5774;SDS011;2913;51.120;6.772;2022-08-05T08:05:56;39.53;;;17.50;;
5774;SDS011;2913;51.120;6.772;2022-08-05T08:08:22;36.03;;;15.95;;
5774;SDS011;2913;51.120;6.772;2022-08-05T08:10:52;43.13;;;16.00;;
5774;SDS011;2913;51.120;6.772;2022-08-05T08:13:19;42.85;;;15.25;;
5774;SDS011;2913;51.120;6.772;2022-08-05T08:15:47;45.38;;;17.02;;
5774;SDS011;2913;51.120;6.772;2022-08-05T08:18:15;44.72;;;17.65;;
5774;SDS011;2913;51.120;6.772;2022-08-05T08:20:41;41.95;;;15.75;;
5774;SDS011;2913;51.120;6.772;2022-08-05T08:23:09;49.70;;;15.85;;
5774;SDS011;2913;51.120;6.772;2022-08-05T08:25:35;40.28;;;17.55;;
5774;SDS011;2913;51.120;6.772;2022-08-05T08:28:00;53.83;;;17.38;;
5774;SDS011;2913;51.120;6.772;2022-08-05T08:30:26;38.75;;;17.20;;
5774;SDS011;2913;51.120;6.772;2022-08-05T08:32:51;43.92;;;14.95;;
5774;SDS011;2913;51.120;6.772;2022-08-05T08:35:17;31.42;;;12.27;;
5774;SDS011;2913;51.120;6.772;2022-08-05T08:37:43;28.48;;;11.40;;
5774;SDS011;2913;51.120;6.772;2022-08-05T08:40:08;40.90;;;13.30;;
5774;SDS011;2913;51.120;6.772;2022-08-05T08:42:37;38.47;;;13.25;;
5774;SDS011;2913;51.120;6.772;2022-08-05T08:45:06;34.30;;;13.50;;
5774;SDS011;2913;51.120;6.772;2022-08-05T08:47:35;46.35;;;14.50;;
5774;SDS011;2913;51.120;6.772;2022-08-05T08:50:03;32.45;;;12.32;;
5774;SDS011;2913;51.120;6.772;2022-08-05T08:52:30;31.65;;;13.27;;
5774;SDS011;2913;51.120;6.772;2022-08-05T08:54:57;27.73;;;11.77;;
5774;SDS011;2913;51.120;6.772;2022-08-05T08:57:26;34.42;;;13.27;;
5774;SDS011;2913;51.120;6.772;2022-08-05T08:59:51;34.90;;;11.27;;
5774;SDS011;2913;51.120;6.772;2022-08-05T09:02:21;26.08;;;11.38;;
5774;SDS011;2913;51.120;6.772;2022-08-05T09:04:48;27.13;;;10.38;;
5774;SDS011;2913;51.120;6.772;2022-08-05T09:07:16;36.45;;;10.80;;
5774;SDS011;2913;51.120;6.772;2022-08-05T09:09:42;23.77;;;10.73;;
5774;SDS011;2913;51.120;6.772;2022-08-05T09:12:10;64.78;;;12.32;;
5774;SDS011;2913;51.120;6.772;2022-08-05T09:14:38;30.48;;;10.48;;
5774;SDS011;2913;51.120;6.772;2022-08-05T09:17:05;27.67;;;9.52;;
5774;SDS011;2913;51.120;6.772;2022-08-05T09:19:32;19.40;;;8.77;;
5774;SDS011;2913;51.120;6.772;2022-08-05T09:21:58;30.05;;;8.75;;
5774;SDS011;2913;51.120;6.772;2022-08-05T09:24:24;22.30;;;7.13;;
5774;SDS011;2913;51.120;6.772;2022-08-05T09:26:54;22.27;;;6.53;;
5774;SDS011;2913;51.120;6.772;2022-08-05T09:29:41;21.13;;;6.25;;
5774;SDS011;2913;51.120;6.772;2022-08-05T09:32:11;22.48;;;6.25;;
5774;SDS011;2913;51.120;6.772;2022-08-05T09:34:49;28.63;;;6.40;;
5774;SDS011;2913;51.120;6.772;2022-08-05T09:37:24;23.52;;;6.60;;
5774;SDS011;2913;51.120;6.772;2022-08-05T09:39:51;24.50;;;6.07;;
5774;SDS011;2913;51.120;6.772;2022-08-05T09:42:20;16.92;;;6.80;;
5774;SDS011;2913;51.120;6.772;2022-08-05T09:47:17;22.63;;;7.50;;
5774;SDS011;2913;51.120;6.772;2022-08-05T09:49:48;25.77;;;7.30;;
5774;SDS011;2913;51.120;6.772;2022-08-05T09:52:16;19.45;;;7.70;;
5774;SDS011;2913;51.120;6.772;2022-08-05T09:57:30;19.02;;;7.18;;
5774;SDS011;2913;51.120;6.772;2022-08-05T10:00:00;19.85;;;7.88;;
5774;SDS011;2913;51.120;6.772;2022-08-05T10:02:32;25.60;;;6.95;;
5774;SDS011;2913;51.120;6.772;2022-08-05T10:05:15;22.08;;;6.57;;
5774;SDS011;2913;51.120;6.772;2022-08-05T10:10:17;14.93;;;6.25;;
5774;SDS011;2913;51.120;6.772;2022-08-05T10:12:49;13.63;;;5.80;;
5774;SDS011;2913;51.120;6.772;2022-08-05T10:17:42;13.70;;;5.63;;
5774;SDS011;2913;51.120;6.772;2022-08-05T10:20:08;18.13;;;6.35;;
5774;SDS011;2913;51.120;6.772;2022-08-05T10:22:38;15.07;;;5.55;;
5774;SDS011;2913;51.120;6.772;2022-08-05T10:25:04;14.05;;;5.82;;
5774;SDS011;2913;51.120;6.772;2022-08-05T10:27:30;18.30;;;6.25;;
5774;SDS011;2913;51.120;6.772;2022-08-05T10:29:56;11.45;;;4.78;;
5774;SDS011;2913;51.120;6.772;2022-08-05T10:32:22;13.95;;;4.57;;
5774;SDS011;2913;51.120;6.772;2022-08-05T10:34:48;16.20;;;4.30;;
5774;SDS011;2913;51.120;6.772;2022-08-05T10:37:14;20.40;;;4.28;;
5774;SDS011;2913;51.120;6.772;2022-08-05T10:39:45;17.38;;;4.28;;
5774;SDS011;2913;51.120;6.772;2022-08-05T10:42:20;18.95;;;4.50;;
5774;SDS011;2913;51.120;6.772;2022-08-05T10:44:47;16.08;;;4.00;;
5774;SDS011;2913;51.120;6.772;2022-08-05T10:47:14;11.80;;;4.30;;
5774;SDS011;2913;51.120;6.772;2022-08-05T10:49:58;10.07;;;4.88;;
5774;SDS011;2913;51.120;6.772;2022-08-05T10:55:09;27.00;;;9.88;;
5774;SDS011;2913;51.120;6.772;2022-08-05T10:57:40;29.67;;;12.13;;
5774;SDS011;2913;51.120;6.772;2022-08-05T11:00:13;30.52;;;10.57;;
5774;SDS011;2913;51.120;6.772;2022-08-05T11:05:27;28.33;;;11.45;;
5774;SDS011;2913;51.120;6.772;2022-08-05T11:08:01;25.73;;;11.55;;
5774;SDS011;2913;51.120;6.772;2022-08-05T11:10:32;19.35;;;10.27;;
5774;SDS011;2913;51.120;6.772;2022-08-05T11:13:01;21.50;;;9.98;;
5774;SDS011;2913;51.120;6.772;2022-08-05T11:15:32;19.38;;;10.20;;
5774;SDS011;2913;51.120;6.772;2022-08-05T11:18:08;20.55;;;11.90;;
5774;SDS011;2913;51.120;6.772;2022-08-05T11:20:47;26.05;;;11.82;;
5774;SDS011;2913;51.120;6.772;2022-08-05T11:23:29;25.48;;;13.73;;
5774;SDS011;2913;51.120;6.772;2022-08-05T11:33:31;29.88;;;15.27;;
5774;SDS011;2913;51.120;6.772;2022-08-05T11:36:00;28.98;;;14.75;;
5774;SDS011;2913;51.120;6.772;2022-08-05T11:41:06;29.20;;;13.02;;
5774;SDS011;2913;51.120;6.772;2022-08-05T11:49:18;26.08;;;11.07;;
5774;SDS011;2913;51.120;6.772;2022-08-05T11:51:46;19.95;;;11.10;;
5774;SDS011;2913;51.120;6.772;2022-08-05T11:54:21;19.73;;;8.88;;
5774;SDS011;2913;51.120;6.772;2022-08-05T11:56:51;23.95;;;8.82;;
5774;SDS011;2913;51.120;6.772;2022-08-05T12:02:07;13.02;;;8.85;;
5774;SDS011;2913;51.120;6.772;2022-08-05T12:07:07;16.85;;;8.23;;
5774;SDS011;2913;51.120;6.772;2022-08-05T12:09:39;20.13;;;9.00;;
5774;SDS011;2913;51.120;6.772;2022-08-05T12:12:09;19.30;;;8.90;;
5774;SDS011;2913;51.120;6.772;2022-08-05T12:14:38;17.73;;;8.55;;
5774;SDS011;2913;51.120;6.772;2022-08-05T12:17:06;16.30;;;7.70;;
5774;SDS011;2913;51.120;6.772;2022-08-05T12:19:43;15.73;;;7.97;;
5774;SDS011;2913;51.120;6.772;2022-08-05T12:22:16;14.55;;;7.85;;
5774;SDS011;2913;51.120;6.772;2022-08-05T12:24:45;20.10;;;8.55;;
5774;SDS011;2913;51.120;6.772;2022-08-05T12:27:22;19.13;;;8.95;;
5774;SDS011;2913;51.120;6.772;2022-08-05T12:30:00;20.88;;;8.98;;
5774;SDS011;2913;51.120;6.772;2022-08-05T12:32:27;19.25;;;8.02;;
5774;SDS011;2913;51.120;6.772;2022-08-05T12:34:55;15.85;;;7.43;;
5774;SDS011;2913;51.120;6.772;2022-08-05T12:37:21;21.20;;;8.02;;
5774;SDS011;2913;51.120;6.772;2022-08-05T12:39:50;18.13;;;6.75;;
5774;SDS011;2913;51.120;6.772;2022-08-05T12:42:19;17.25;;;8.02;;
5774;SDS011;2913;51.120;6.772;2022-08-05T12:44:48;19.88;;;7.35;;
5774;SDS011;2913;51.120;6.772;2022-08-05T12:47:27;17.13;;;7.57;;
5774;SDS011;2913;51.120;6.772;2022-08-05T12:49:53;11.63;;;5.80;;
5774;SDS011;2913;51.120;6.772;2022-08-05T12:52:19;19.13;;;6.15;;
5774;SDS011;2913;51.120;6.772;2022-08-05T12:54:45;20.67;;;5.00;;
5774;SDS011;2913;51.120;6.772;2022-08-05T12:57:13;14.75;;;5.57;;
5774;SDS011;2913;51.120;6.772;2022-08-05T13:02:23;14.10;;;4.93;;
5774;SDS011;2913;51.120;6.772;2022-08-05T13:04:50;17.92;;;4.57;;
5774;SDS011;2913;51.120;6.772;2022-08-05T13:07:20;14.88;;;4.20;;
5774;SDS011;2913;51.120;6.772;2022-08-05T13:09:53;15.45;;;4.20;;
5774;SDS011;2913;51.120;6.772;2022-08-05T13:12:23;9.43;;;4.15;;
5774;SDS011;2913;51.120;6.772;2022-08-05T13:14:52;10.82;;;4.18;;
5774;SDS011;2913;51.120;6.772;2022-08-05T13:17:26;10.00;;;4.33;;
5774;SDS011;2913;51.120;6.772;2022-08-05T13:20:00;10.30;;;3.97;;
5774;SDS011;2913;51.120;6.772;2022-08-05T13:22:29;12.10;;;4.22;;
5774;SDS011;2913;51.120;6.772;2022-08-05T13:24:56;7.53;;;3.90;;
5774;SDS011;2913;51.120;6.772;2022-08-05T13:27:29;5.78;;;3.25;;
5774;SDS011;2913;51.120;6.772;2022-08-05T13:29:56;8.70;;;3.72;;
5774;SDS011;2913;51.120;6.772;2022-08-05T13:32:22;9.27;;;3.35;;
5774;SDS011;2913;51.120;6.772;2022-08-05T13:34:53;13.40;;;4.07;;
5774;SDS011;2913;51.120;6.772;2022-08-05T13:37:20;10.18;;;4.75;;
5774;SDS011;2913;51.120;6.772;2022-08-05T13:39:49;9.85;;;4.13;;
5774;SDS011;2913;51.120;6.772;2022-08-05T13:42:17;12.52;;;4.22;;
5774;SDS011;2913;51.120;6.772;2022-08-05T13:44:44;11.23;;;3.97;;
5774;SDS011;2913;51.120;6.772;2022-08-05T13:47:15;8.02;;;3.88;;
5774;SDS011;2913;51.120;6.772;2022-08-05T13:49:43;12.90;;;3.80;;
5774;SDS011;2913;51.120;6.772;2022-08-05T13:52:12;13.23;;;4.25;;
5774;SDS011;2913;51.120;6.772;2022-08-05T13:54:43;9.90;;;3.85;;
5774;SDS011;2913;51.120;6.772;2022-08-05T13:57:09;11.50;;;4.07;;
5774;SDS011;2913;51.120;6.772;2022-08-05T13:59:35;16.08;;;4.70;;
5774;SDS011;2913;51.120;6.772;2022-08-05T14:02:02;6.25;;;3.20;;
5774;SDS011;2913;51.120;6.772;2022-08-05T14:04:30;7.55;;;2.70;;
5774;SDS011;2913;51.120;6.772;2022-08-05T14:07:16;7.45;;;2.72;;
5774;SDS011;2913;51.120;6.772;2022-08-05T14:09:42;5.82;;;2.67;;
5774;SDS011;2913;51.120;6.772;2022-08-05T14:12:11;8.48;;;2.92;;
5774;SDS011;2913;51.120;6.772;2022-08-05T14:14:36;7.28;;;2.60;;
5774;SDS011;2913;51.120;6.772;2022-08-05T14:17:03;8.68;;;2.67;;
5774;SDS011;2913;51.120;6.772;2022-08-05T14:19:29;10.25;;;2.58;;
5774;SDS011;2913;51.120;6.772;2022-08-05T14:21:54;8.88;;;2.10;;
5774;SDS011;2913;51.120;6.772;2022-08-05T14:24:20;10.02;;;1.77;;
5774;SDS011;2913;51.120;6.772;2022-08-05T14:26:45;21.13;;;2.50;;
5774;SDS011;2913;51.120;6.772;2022-08-05T14:29:11;6.53;;;1.98;;
5774;SDS011;2913;51.120;6.772;2022-08-05T14:31:37;5.57;;;2.33;;
5774;SDS011;2913;51.120;6.772;2022-08-05T14:34:03;8.60;;;2.10;;
5774;SDS011;2913;51.120;6.772;2022-08-05T14:36:33;6.28;;;2.63;;
5774;SDS011;2913;51.120;6.772;2022-08-05T14:38:59;4.32;;;2.20;;
5774;SDS011;2913;51.120;6.772;2022-08-05T14:41:27;6.53;;;2.28;;
5774;SDS011;2913;51.120;6.772;2022-08-05T14:43:52;10.95;;;2.63;;
5774;SDS011;2913;51.120;6.772;2022-08-05T14:46:20;5.13;;;2.67;;
5774;SDS011;2913;51.120;6.772;2022-08-05T14:48:46;4.82;;;2.30;;
5774;SDS011;2913;51.120;6.772;2022-08-05T14:51:11;7.93;;;2.55;;
5774;SDS011;2913;51.120;6.772;2022-08-05T14:53:37;5.50;;;2.38;;
5774;SDS011;2913;51.120;6.772;2022-08-05T14:56:03;9.73;;;2.70;;
5774;SDS011;2913;51.120;6.772;2022-08-05T14:58:29;12.43;;;2.75;;
5774;SDS011;2913;51.120;6.772;2022-08-05T15:00:54;11.35;;;2.22;;
5774;SDS011;2913;51.120;6.772;2022-08-05T15:03:20;7.63;;;2.60;;
5774;SDS011;2913;51.120;6.772;2022-08-05T15:05:48;9.98;;;2.40;;
5774;SDS011;2913;51.120;6.772;2022-08-05T15:08:18;3.90;;;2.00;;
5774;SDS011;2913;51.120;6.772;2022-08-05T15:10:44;7.15;;;2.67;;
5774;SDS011;2913;51.120;6.772;2022-08-05T15:13:09;7.75;;;2.40;;
5774;SDS011;2913;51.120;6.772;2022-08-05T15:15:35;7.75;;;2.03;;
5774;SDS011;2913;51.120;6.772;2022-08-05T15:18:03;8.60;;;2.35;;
5774;SDS011;2913;51.120;6.772;2022-08-05T15:20:29;20.77;;;2.47;;
5774;SDS011;2913;51.120;6.772;2022-08-05T15:23:04;6.63;;;2.20;;
5774;SDS011;2913;51.120;6.772;2022-08-05T15:25:33;4.43;;;2.38;;
5774;SDS011;2913;51.120;6.772;2022-08-05T15:27:59;9.82;;;2.40;;
5774;SDS011;2913;51.120;6.772;2022-08-05T15:30:29;14.50;;;2.60;;
5774;SDS011;2913;51.120;6.772;2022-08-05T15:33:00;8.38;;;2.22;;
5774;SDS011;2913;51.120;6.772;2022-08-05T15:35:26;5.00;;;2.00;;
5774;SDS011;2913;51.120;6.772;2022-08-05T15:37:53;8.20;;;2.33;;
5774;SDS011;2913;51.120;6.772;2022-08-05T15:40:21;7.72;;;1.80;;
5774;SDS011;2913;51.120;6.772;2022-08-05T15:42:49;5.97;;;1.55;;
5774;SDS011;2913;51.120;6.772;2022-08-05T15:45:16;3.13;;;1.65;;
5774;SDS011;2913;51.120;6.772;2022-08-05T15:47:42;7.72;;;1.60;;
5774;SDS011;2913;51.120;6.772;2022-08-05T15:50:09;4.57;;;1.60;;
5774;SDS011;2913;51.120;6.772;2022-08-05T15:52:39;9.48;;;1.80;;
5774;SDS011;2913;51.120;6.772;2022-08-05T15:55:10;5.43;;;1.80;;
5774;SDS011;2913;51.120;6.772;2022-08-05T15:57:38;6.70;;;1.38;;
5774;SDS011;2913;51.120;6.772;2022-08-05T16:00:07;5.95;;;1.52;;
5774;SDS011;2913;51.120;6.772;2022-08-05T16:02:34;5.43;;;1.48;;